Time;durP1;ratioP1;P1;durP2;ratioP2;P2;SDS_P1;SDS_P2;PMS_P1;PMS_P2;Temp;Humidity;BMP_temperature;BMP_pressure;BME280_temperature;BME280_humidity;BME280_pressure;Samples;Min_cycle;Max_cycle;Signal;HPM_P1;HPM_P2
2022/01/20 00:00:19;;;;;;;;;;;25.70;2201.60;;;;;;5042011;28;20041;-59
2022/01/20 00:02:47;;;;;;;35.90;20.75;;;25.60;2201.60;;;;;;5041615;28;19917;-56
2022/01/20 00:06:02;;;;;;;59.20;32.10;;;0.60;2201.60;;;;;;5041308;28;20029;-56
2022/01/20 00:27:13;;;;;;;23.65;12.65;;;25.60;2201.60;;;;;;5041207;28;20040;-58
2022/01/20 00:32:31;;;;;;;149.40;72.75;;;0.90;2201.60;;;;;;5042421;28;20036;-57
2022/01/20 00:37:27;;;;;;;159.90;79.38;;;0.80;2201.60;;;;;;5048542;28;20028;-58
2022/01/20 00:39:53;;;;;;;93.57;47.28;;;0.80;2201.60;;;;;;5052437;28;20024;-59
2022/01/20 00:42:20;;;;;;;126.32;62.60;;;0.90;2201.60;;;;;;5051591;28;20491;-58
2022/01/20 00:44:46;;;;;;;40.55;20.27;;;25.60;2201.60;;;;;;5051512;28;20103;-59
2022/01/20 00:47:14;;;;;;;33.33;18.48;;;25.60;2201.60;;;;;;5051780;28;20039;-57
2022/01/20 00:49:40;;;;;;;89.20;43.25;;;0.90;2201.60;;;;;;5051947;28;20134;-57
2022/01/20 00:52:07;;;;;;;85.45;41.13;;;25.60;2201.60;;;;;;5051999;28;20071;-55
2022/01/20 00:54:33;;;;;;;37.80;19.25;;;25.70;2201.60;;;;;;5051993;28;20086;-57
2022/01/20 00:56:59;;;;;;;36.42;19.40;;;25.70;2201.60;;;;;;5051974;28;20037;-57
2022/01/20 00:59:27;;;;;;;44.08;19.65;;;25.60;2201.60;;;;;;5052257;28;20463;-56
2022/01/20 01:01:54;;;;;;;104.20;44.58;;;0.70;2201.60;;;;;;5051522;28;20029;-56
2022/01/20 01:04:19;;;;;;;30.85;15.88;;;0.80;2201.60;;;;;;5051832;28;20547;-56
2022/01/20 01:09:11;;;;;;;97.93;49.05;;;0.80;2201.60;;;;;;5051601;28;20036;-56
2022/01/20 01:11:38;;;;;;;73.18;35.42;;;0.80;2201.60;;;;;;5051955;28;20467;-56
2022/01/20 01:14:05;;;;;;;26.17;11.88;;;0.90;2201.60;;;;;;5051903;28;20029;-56
2022/01/20 01:24:30;;;;;;;50.78;27.27;;;0.90;2201.60;;;;;;5051887;28;20074;-59
2022/01/20 01:26:56;;;;;;;121.32;61.45;;;25.60;2201.60;;;;;;5051341;28;20438;-58
2022/01/20 01:29:53;;;;;;;68.32;37.42;;;25.70;2201.60;;;;;;5051215;28;20124;-58
2022/01/20 01:32:19;;;;;;;145.88;74.85;;;25.60;2201.60;;;;;;5050632;28;20128;-57
2022/01/20 01:34:49;;;;;;;122.82;70.82;;;0.90;2201.60;;;;;;5051178;28;20037;-57
2022/01/20 01:40:12;;;;;;;119.32;57.20;;;0.90;2201.60;;;;;;5048880;28;20059;-59
2022/01/20 01:42:48;;;;;;;85.65;38.42;;;0.70;2201.60;;;;;;5048881;28;20464;-57
2022/01/20 01:45:41;;;;;;;21.20;11.45;;;0.80;2201.60;;;;;;5048873;28;20080;-56
2022/01/20 01:48:07;;;;;;;47.25;35.85;;;0.70;2201.60;;;;;;5046992;28;20043;-55
2022/01/20 01:50:34;;;;;;;227.38;103.85;;;0.70;2201.60;;;;;;5048255;28;20037;-56
2022/01/20 01:53:04;;;;;;;128.98;62.65;;;0.60;2201.60;;;;;;5048585;28;20495;-58
2022/01/20 01:55:31;;;;;;;242.60;113.30;;;0.60;2201.60;;;;;;5048405;28;20037;-58
2022/01/20 01:57:56;;;;;;;118.22;53.63;;;0.50;2201.60;;;;;;5048732;28;20045;-56
2022/01/20 02:00:23;;;;;;;86.93;41.13;;;0.50;2201.60;;;;;;5048429;28;20025;-57
2022/01/20 02:02:49;;;;;;;197.18;85.55;;;0.60;2201.60;;;;;;5048582;28;20037;-56
2022/01/20 02:05:16;;;;;;;138.75;66.13;;;0.60;2201.60;;;;;;5048431;28;20028;-57
2022/01/20 02:18:52;;;;;;;24.55;13.93;;;0.60;2201.60;;;;;;4970040;28;20038;-58
2022/01/20 02:21:19;;;;;;;97.03;46.75;;;0.60;2201.60;;;;;;4969490;28;20042;-57
2022/01/20 02:23:50;;;;;;;154.25;69.30;;;0.80;2201.60;;;;;;4969665;28;20027;-58
2022/01/20 02:26:16;;;;;;;258.83;111.28;;;0.60;2201.60;;;;;;4969542;28;20392;-57
2022/01/20 02:28:43;;;;;;;189.15;84.13;;;0.50;2201.60;;;;;;4969303;28;20030;-58
2022/01/20 02:31:09;;;;;;;202.52;86.15;;;0.60;2201.60;;;;;;4969280;28;20027;-57
2022/01/20 02:33:35;;;;;;;50.65;24.75;;;0.50;2201.60;;;;;;4969404;28;20034;-57
2022/01/20 02:36:08;;;;;;;23.52;14.63;;;0.50;2201.60;;;;;;4969396;28;20110;-58
2022/01/20 02:46:31;;;;;;;21.50;10.80;;;0.30;2201.60;;;;;;4975632;28;20042;-56
2022/01/20 02:48:57;;;;;;;21.77;12.85;;;0.10;2201.60;;;;;;5050177;28;20447;-56
2022/01/20 02:51:23;;;;;;;32.67;17.13;;;0.20;2201.60;;;;;;5049833;28;20067;-58
2022/01/20 02:53:49;;;;;;;73.22;40.22;;;0.20;2201.60;;;;;;5049868;28;20025;-57
2022/01/20 02:56:15;;;;;;;16.25;11.57;;;0.30;2201.60;;;;;;5050038;28;20033;-58
2022/01/20 02:58:41;;;;;;;18.58;9.50;;;0.30;2201.60;;;;;;5050166;28;20033;-58
2022/01/20 03:01:08;;;;;;;23.42;13.07;;;0.30;2201.60;;;;;;5049845;28;20044;-56
2022/01/20 03:03:36;;;;;;;27.05;16.52;;;0.40;2201.60;;;;;;5050141;28;20080;-58
2022/01/20 03:06:03;;;;;;;28.95;15.38;;;0.20;2201.60;;;;;;5049878;28;20029;-57
2022/01/20 03:08:29;;;;;;;13.48;6.50;;;0.20;2201.60;;;;;;5053699;28;20056;-60
2022/01/20 03:10:55;;;;;;;27.35;15.00;;;0.20;2201.60;;;;;;5053954;28;20390;-59
2022/01/20 03:13:20;;;;;;;32.55;17.90;;;0.30;2201.60;;;;;;5053673;28;20510;-58
2022/01/20 03:15:46;;;;;;;21.15;12.80;;;0.60;2201.60;;;;;;5054116;28;20036;-56
2022/01/20 03:18:12;;;;;;;23.73;13.82;;;0.70;2201.60;;;;;;5053722;28;20100;-59
2022/01/20 03:20:38;;;;;;;92.53;54.45;;;0.70;2201.60;;;;;;5053757;28;20033;-58
2022/01/20 03:23:04;;;;;;;47.67;23.40;;;0.80;2201.60;;;;;;5053857;28;20067;-57
2022/01/20 03:25:34;;;;;;;69.97;42.00;;;0.90;2201.60;;;;;;5053453;28;20032;-58
2022/01/20 03:28:00;;;;;;;61.83;33.20;;;25.60;2201.60;;;;;;5053537;28;20025;-58
2022/01/20 03:30:27;;;;;;;22.10;13.90;;;25.60;2201.60;;;;;;5053588;28;20033;-58
2022/01/20 03:32:53;;;;;;;35.50;16.98;;;25.70;2201.60;;;;;;5053452;28;20108;-57
2022/01/20 03:35:19;;;;;;;40.38;20.20;;;0.90;2201.60;;;;;;5053370;28;20508;-56
2022/01/20 03:37:45;;;;;;;82.78;41.30;;;25.60;2201.60;;;;;;5053355;28;20061;-59
2022/01/20 03:40:11;;;;;;;280.70;146.77;;;0.90;2201.60;;;;;;5053166;28;20065;-59
2022/01/20 03:42:37;;;;;;;148.73;75.60;;;0.90;2201.60;;;;;;5053375;28;20455;-58
2022/01/20 03:45:04;;;;;;;115.90;61.05;;;25.60;2201.60;;;;;;5053361;28;20090;-58
2022/01/20 03:47:30;;;;;;;21.02;11.60;;;25.60;2201.60;;;;;;5053253;28;20036;-59
2022/01/20 03:52:24;;;;;;;103.85;50.85;;;0.80;2201.60;;;;;;5053261;28;20044;-57
2022/01/20 03:54:50;;;;;;;114.30;55.55;;;0.90;2201.60;;;;;;5049545;28;20033;-58
2022/01/20 03:57:16;;;;;;;61.40;27.13;;;0.70;2201.60;;;;;;5053357;28;20067;-56
2022/01/20 03:59:42;;;;;;;38.03;17.98;;;0.70;2201.60;;;;;;5052791;28;20463;-56
2022/01/20 04:02:07;;;;;;;274.27;102.60;;;0.60;2201.60;;;;;;5052932;28;20028;-56
2022/01/20 04:04:33;;;;;;;114.68;44.80;;;0.60;2201.60;;;;;;5042559;28;20087;-56
2022/01/20 04:06:59;;;;;;;25.52;11.65;;;0.70;2201.60;;;;;;5032740;28;20472;-57
2022/01/20 04:09:25;;;;;;;92.22;38.17;;;0.60;2201.60;;;;;;5033013;28;20036;-56
2022/01/20 04:11:51;;;;;;;110.88;50.35;;;0.50;2201.60;;;;;;5032691;28;20120;-57
2022/01/20 04:14:17;;;;;;;103.00;52.17;;;0.50;2201.60;;;;;;5031558;28;20399;-57
2022/01/20 04:19:17;;;;;;;17.02;8.88;;;0.40;2201.60;;;;;;5032698;28;20544;-56
2022/01/20 04:21:43;;;;;;;111.22;49.90;;;0.00;2201.60;;;;;;5032607;28;20025;-56
2022/01/20 04:24:09;;;;;;;90.07;34.85;;;0.10;2201.60;;;;;;5032421;28;20059;-55
2022/01/20 04:26:38;;;;;;;307.85;124.57;;;0.10;2201.60;;;;;;5032540;28;20048;-55
2022/01/20 04:29:06;;;;;;;288.33;123.90;;;0.30;2201.60;;;;;;5032401;28;20451;-55
2022/01/20 04:31:35;;;;;;;40.80;19.83;;;0.40;2201.60;;;;;;5032215;28;20034;-55
2022/01/20 04:34:01;;;;;;;274.83;120.38;;;0.50;2201.60;;;;;;5032397;28;20047;-56
2022/01/20 04:36:31;;;;;;;153.50;72.72;;;0.60;2201.60;;;;;;5032204;28;20045;-55
2022/01/20 04:39:01;;;;;;;68.47;36.30;;;0.70;2201.60;;;;;;5032342;28;20104;-55
2022/01/20 04:41:30;;;;;;;114.65;53.95;;;0.70;2201.60;;;;;;5032416;28;20112;-55
2022/01/20 04:44:00;;;;;;;13.13;6.70;;;0.70;2201.60;;;;;;5032505;28;20127;-55
2022/01/20 04:46:40;;;;;;;41.97;19.10;;;0.40;2201.60;;;;;;5032540;28;20037;-55
2022/01/20 04:59:33;;;;;;;182.98;86.57;;;0.80;2201.60;;;;;;5032079;28;20052;-55
2022/01/20 05:01:58;;;;;;;41.25;17.15;;;25.60;2201.60;;;;;;5031641;28;20399;-55
2022/01/20 05:04:25;;;;;;;16.60;8.93;;;25.70;2201.60;;;;;;5032029;28;20044;-55
2022/01/20 05:06:54;;;;;;;11.27;7.47;;;25.70;2201.60;;;;;;5031552;28;20041;-54
2022/01/20 05:09:21;;;;;;;109.25;51.03;;;25.60;2201.60;;;;;;5031565;28;20022;-55
2022/01/20 05:11:52;;;;;;;13.27;7.38;;;0.70;2201.60;;;;;;5031986;28;20033;-55
2022/01/20 05:14:18;;;;;;;12.00;5.40;;;0.60;2201.60;;;;;;5031878;28;20052;-55
2022/01/20 05:16:44;;;;;;;41.20;23.40;;;0.30;2201.60;;;;;;5032485;28;20053;-55
2022/01/20 05:19:10;;;;;;;30.20;20.27;;;0.20;2201.60;;;;;;5032338;28;20028;-55
2022/01/20 05:21:36;;;;;;;94.40;45.95;;;0.10;2201.60;;;;;;5032314;28;20104;-54
2022/01/20 05:24:03;;;;;;;68.68;35.15;;;0.00;2201.60;;;;;;5031988;28;20121;-57
2022/01/20 05:26:29;;;;;;;60.25;28.83;;;0.30;2201.60;;;;;;5031434;28;20095;-56
2022/01/20 05:28:55;;;;;;;199.02;107.45;;;0.30;2201.60;;;;;;5031082;28;20029;-55
2022/01/20 05:31:20;;;;;;;88.38;47.33;;;0.20;2201.60;;;;;;5031048;28;20454;-55
2022/01/20 05:33:46;;;;;;;24.42;13.68;;;0.20;2201.60;;;;;;5031140;28;20029;-56
2022/01/20 05:36:12;;;;;;;21.35;11.98;;;0.30;2201.60;;;;;;5031020;28;20029;-55
2022/01/20 05:38:38;;;;;;;34.72;22.40;;;0.30;2201.60;;;;;;5031327;28;20151;-58
2022/01/20 05:41:03;;;;;;;18.13;11.38;;;0.40;2201.60;;;;;;5031247;28;20064;-57
2022/01/20 05:43:29;;;;;;;46.17;26.80;;;0.40;2201.60;;;;;;5030983;28;20049;-57
2022/01/20 05:45:55;;;;;;;35.08;21.15;;;0.30;2201.60;;;;;;5031048;28;20502;-54
2022/01/20 05:48:32;;;;;;;44.25;21.75;;;0.50;2201.60;;;;;;5030734;28;20061;-58
2022/01/20 05:50:58;;;;;;;29.92;19.02;;;0.40;2201.60;;;;;;5043912;28;20597;-57
2022/01/20 05:53:24;;;;;;;24.67;14.18;;;0.50;2201.60;;;;;;5050799;28;20109;-55
2022/01/20 05:55:50;;;;;;;76.53;43.13;;;0.80;2201.60;;;;;;5050715;28;20060;-57
2022/01/20 05:58:15;;;;;;;44.78;26.77;;;0.60;2201.60;;;;;;5050935;28;20032;-58
2022/01/20 06:00:42;;;;;;;12.73;7.90;;;0.60;2201.60;;;;;;5050410;28;20382;-55
2022/01/20 06:05:53;;;;;;;20.85;10.95;;;0.40;2201.60;;;;;;5050461;28;20078;-56
2022/01/20 06:08:19;;;;;;;19.30;10.40;;;0.60;2201.60;;;;;;5050562;28;20454;-56
2022/01/20 06:10:45;;;;;;;28.42;16.33;;;0.80;2201.60;;;;;;5050475;28;20565;-56
2022/01/20 06:13:11;;;;;;;42.38;23.23;;;25.60;2201.60;;;;;;5050392;28;20055;-58
2022/01/20 06:15:37;;;;;;;37.35;21.58;;;25.70;2201.60;;;;;;5050600;28;20024;-55
2022/01/20 06:18:03;;;;;;;54.63;28.10;;;25.60;2201.60;;;;;;5050653;28;20036;-57
2022/01/20 06:20:29;;;;;;;46.28;20.63;;;25.60;2201.60;;;;;;5050417;28;20032;-58
2022/01/20 06:22:56;;;;;;;46.97;29.27;;;25.70;2201.60;;;;;;5050561;28;20128;-55
2022/01/20 06:25:22;;;;;;;21.38;12.73;;;25.70;2201.60;;;;;;5050025;28;20056;-58
2022/01/20 06:27:48;;;;;;;42.88;25.75;;;25.70;2201.60;;;;;;5050387;28;20041;-55
2022/01/20 06:30:14;;;;;;;38.17;23.35;;;25.70;2201.60;;;;;;5050226;28;20079;-56
2022/01/20 06:32:41;;;;;;;20.60;11.57;;;25.60;2201.60;;;;;;5050200;28;20123;-58
2022/01/20 06:35:07;;;;;;;28.65;16.70;;;25.70;2201.60;;;;;;5050147;28;20032;-58
2022/01/20 06:37:33;;;;;;;34.53;20.20;;;25.60;2201.60;;;;;;5050120;28;20032;-56
2022/01/20 06:39:59;;;;;;;120.32;65.60;;;25.60;2201.60;;;;;;5050109;28;20029;-56
2022/01/20 06:42:25;;;;;;;65.97;35.70;;;25.60;2201.60;;;;;;5050346;28;20078;-56
2022/01/20 06:44:51;;;;;;;84.13;44.20;;;25.70;2201.60;;;;;;5050038;28;20462;-56
2022/01/20 06:47:16;;;;;;;47.58;27.10;;;25.60;2201.60;;;;;;5050062;28;20560;-55
2022/01/20 06:49:42;;;;;;;32.60;16.38;;;0.80;2201.60;;;;;;5050233;28;20035;-56
2022/01/20 06:52:08;;;;;;;25.13;12.90;;;0.80;2201.60;;;;;;5050069;28;20083;-55
2022/01/20 06:54:34;;;;;;;164.18;96.45;;;0.80;2201.60;;;;;;5050013;28;20036;-55
2022/01/20 06:57:00;;;;;;;204.63;111.50;;;0.80;2201.60;;;;;;5049850;28;20032;-55
2022/01/20 06:59:26;;;;;;;203.82;122.88;;;0.70;2201.60;;;;;;5050094;28;20032;-56
2022/01/20 07:01:52;;;;;;;381.75;226.07;;;0.80;2201.60;;;;;;5049632;28;20033;-55
2022/01/20 07:04:19;;;;;;;320.35;189.60;;;0.70;2201.60;;;;;;5049915;28;20087;-55
2022/01/20 07:06:44;;;;;;;247.88;136.48;;;0.70;2201.60;;;;;;5049612;28;20094;-56
2022/01/20 07:09:11;;;;;;;292.52;166.75;;;0.90;2201.60;;;;;;5049697;28;20025;-55
2022/01/20 07:11:40;;;;;;;159.85;93.18;;;0.90;2201.60;;;;;;5046418;28;20545;-55
2022/01/20 07:14:08;;;;;;;472.80;310.70;;;25.60;2201.60;;;;;;5035591;28;20026;-55
2022/01/20 07:16:34;;;;;;;515.22;344.85;;;0.70;2201.60;;;;;;5029012;28;20460;-55
2022/01/20 07:19:00;;;;;;;508.45;334.38;;;0.30;2201.60;;;;;;5029986;28;20519;-57
2022/01/20 07:21:26;;;;;;;450.00;272.88;;;0.20;2201.60;;;;;;5030177;28;20088;-55
2022/01/20 07:23:53;;;;;;;342.30;215.50;;;0.20;2201.60;;;;;;5029568;28;20483;-56
2022/01/20 07:26:18;;;;;;;400.98;242.85;;;0.50;2201.60;;;;;;5029741;28;20095;-62
2022/01/20 07:28:44;;;;;;;256.90;161.38;;;0.60;2201.60;;;;;;5029892;28;20494;-55
2022/01/20 07:31:10;;;;;;;229.13;137.30;;;0.80;2201.60;;;;;;5029381;28;20060;-56
2022/01/20 07:33:37;;;;;;;319.65;202.32;;;25.60;2201.60;;;;;;5030765;28;20030;-55
2022/01/20 07:36:04;;;;;;;517.00;331.45;;;0.80;2201.60;;;;;;5049456;28;20460;-55
2022/01/20 07:38:30;;;;;;;480.30;299.30;;;0.50;2201.60;;;;;;5049506;28;20036;-57
2022/01/20 07:40:56;;;;;;;488.13;303.00;;;0.50;2201.60;;;;;;5047266;28;20108;-57
2022/01/20 07:43:22;;;;;;;465.45;310.25;;;0.80;2201.60;;;;;;5035879;28;20108;-54
2022/01/20 07:45:48;;;;;;;407.77;253.80;;;25.70;2201.60;;;;;;5040013;28;20021;-56
2022/01/20 07:48:14;;;;;;;236.98;138.02;;;25.80;2201.60;;;;;;5049381;28;20029;-57
2022/01/20 07:50:40;;;;;;;181.80;109.95;;;26.00;2201.60;;;;;;5049413;28;20086;-55
2022/01/20 07:53:05;;;;;;;201.68;121.55;;;26.30;2201.60;;;;;;5051320;28;20025;-55
2022/01/20 07:55:31;;;;;;;378.15;244.55;;;26.50;2201.60;;;;;;5053103;28;20460;-54
2022/01/20 07:57:57;;;;;;;404.52;238.95;;;26.30;2201.60;;;;;;5053197;28;20041;-58
2022/01/20 08:00:23;;;;;;;396.90;240.63;;;26.30;2201.60;;;;;;5052820;28;20475;-55
2022/01/20 08:02:49;;;;;;;432.00;263.83;;;26.40;2201.60;;;;;;5041925;28;20041;-57
2022/01/20 08:05:15;;;;;;;386.17;247.70;;;51.30;2227.20;;;;;;5033247;28;20388;-54
2022/01/20 08:07:41;;;;;;;388.55;243.15;;;52.00;2227.20;;;;;;5032578;28;20137;-56
2022/01/20 08:10:08;;;;;;;407.15;264.23;;;102.40;2227.20;;;;;;5032995;28;20018;-54
2022/01/20 08:12:34;;;;;;;375.23;260.85;;;128.40;2201.60;;;;;;5032760;28;20116;-55
2022/01/20 08:15:00;;;;;;;396.20;289.23;;;153.90;2048.00;;;;;;5032659;28;20109;-67
2022/01/20 08:17:26;;;;;;;388.65;285.17;;;180.00;1894.40;;;;;;5036240;28;20034;-62
2022/01/20 08:19:52;;;;;;;342.02;264.90;;;230.50;1740.80;;;;;;5044636;28;20090;-61
2022/01/20 08:22:18;;;;;;;348.23;264.30;;;256.50;1612.80;;;;;;5048622;28;20479;-64
2022/01/20 08:24:49;;;;;;;367.10;291.80;;;307.40;1536.00;;;;;;5052288;28;20479;-63
2022/01/20 08:27:17;;;;;;;593.28;459.13;;;332.80;1484.80;;;;;;5043560;28;20039;-66
2022/01/20 08:29:43;;;;;;;581.17;442.33;;;333.50;1408.00;;;;;;5032360;28;20026;-64
2022/01/20 08:32:09;;;;;;;427.05;338.70;;;384.10;1305.60;;;;;;5032365;28;20036;-62
2022/01/20 08:34:35;;;;;;;506.80;393.90;;;384.40;1280.00;;;;;;5040402;28;20442;-70
2022/01/20 08:37:00;;;;;;;556.55;449.52;;;410.30;1228.80;;;;;;5032473;28;20533;-71
2022/01/20 08:39:48;;;;;;;205.45;161.63;;;435.50;1203.20;;;;;;5032557;28;20057;-69
2022/01/20 08:42:14;;;;;;;148.07;116.43;;;435.90;1152.00;;;;;;5032064;28;20120;-71
2022/01/20 08:44:40;;;;;;;178.38;143.63;;;436.00;1152.00;;;;;;5037340;28;20025;-65
2022/01/20 08:47:14;;;;;;;436.15;383.20;;;461.30;1152.00;;;;;;5032422;28;20116;-74
2022/01/20 08:49:40;;;;;;;250.02;208.98;;;435.50;1152.00;;;;;;5032239;28;20100;-69
2022/01/20 08:52:06;;;;;;;198.65;163.02;;;359.20;1254.40;;;;;;5039056;28;20447;-69
2022/01/20 08:54:33;;;;;;;178.18;142.13;;;358.70;1305.60;;;;;;5046981;28;20503;-66
2022/01/20 08:56:59;;;;;;;108.38;86.18;;;384.40;1254.40;;;;;;5052106;28;20021;-70
2022/01/20 08:59:26;;;;;;;92.18;73.47;;;435.30;1177.60;;;;;;5052011;28;20060;-67
2022/01/20 09:01:51;;;;;;;86.90;70.25;;;435.90;1177.60;;;;;;5042680;28;20029;-63
2022/01/20 09:04:17;;;;;;;85.57;65.53;;;461.30;1126.40;;;;;;5047857;28;20079;-70
2022/01/20 09:06:43;;;;;;;66.90;54.92;;;486.50;1075.20;;;;;;5050848;28;20064;-67
2022/01/20 09:09:09;;;;;;;44.92;37.03;;;486.60;1075.20;;;;;;5043994;28;20025;-68
2022/01/20 09:11:49;;;;;;;136.73;115.13;;;486.60;1075.20;;;;;;5051729;28;20450;-65
2022/01/20 09:16:59;;;;;;;39.50;33.53;;;487.30;1049.60;;;;;;5051762;28;20378;-71
2022/01/20 09:19:24;;;;;;;169.02;115.97;;;487.10;1049.60;;;;;;5051672;28;20028;-70
2022/01/20 09:21:50;;;;;;;87.18;75.95;;;486.70;1075.20;;;;;;5032495;28;20025;-69
2022/01/20 09:24:16;;;;;;;85.40;76.03;;;435.90;1126.40;;;;;;5045589;28;20025;-63
2022/01/20 09:26:42;;;;;;;245.98;194.32;;;460.80;1126.40;;;;;;5039034;28;20463;-69
2022/01/20 09:29:07;;;;;;;22.63;18.70;;;461.40;1126.40;;;;;;5035006;28;20484;-62
2022/01/20 09:31:37;;;;;;;38.30;28.85;;;461.70;1075.20;;;;;;5043128;28;20032;-69
2022/01/20 09:34:04;;;;;;;33.80;24.55;;;410.50;1152.00;;;;;;5040659;28;20407;-67
2022/01/20 09:40:07;;;;;;;28.73;23.95;;;435.30;1152.00;;;;;;5030832;23;20458;-68
2022/01/20 09:42:34;;;;;;;233.70;200.73;;;384.90;1177.60;;;;;;5010180;28;20559;-66
2022/01/20 09:45:00;;;;;;;103.95;91.15;;;359.00;1254.40;;;;;;5009992;28;20025;-62
2022/01/20 09:47:26;;;;;;;25.35;22.50;;;333.60;1305.60;;;;;;5021298;28;20039;-61
2022/01/20 09:49:54;;;;;;;90.47;77.45;;;333.00;1331.20;;;;;;4998340;28;20492;-66
2022/01/20 09:52:20;;;;;;;93.15;83.28;;;308.00;1356.80;;;;;;5006698;28;20054;-69
2022/01/20 09:54:46;;;;;;;101.43;90.25;;;307.60;1382.40;;;;;;5009476;28;20054;-62
2022/01/20 09:57:11;;;;;;;30.05;19.60;;;307.50;1408.00;;;;;;5009722;28;20056;-63
2022/01/20 09:59:37;;;;;;;42.20;38.67;;;333.20;1356.80;;;;;;5009222;28;20018;-62
2022/01/20 10:02:09;;;;;;;4.55;2.53;;;358.50;1305.60;;;;;;5009675;28;20431;-62
2022/01/20 10:05:27;;;;;;;6.88;5.78;;;358.90;1280.00;;;;;;5019109;23;20452;-59
2022/01/20 10:07:58;;;;;;;4.60;2.67;;;333.70;1305.60;;;;;;5030526;22;20152;-58
2022/01/20 10:10:34;;;;;;;6.22;4.25;;;332.90;1382.40;;;;;;5028871;28;20430;-57
2022/01/20 10:13:08;;;;;;;9.55;5.60;;;308.10;1382.40;;;;;;5028962;28;20061;-62
2022/01/20 10:19:33;;;;;;;11.93;4.60;;;308.00;1382.40;;;;;;5228810;22;20053;-59
2022/01/20 10:22:00;;;;;;;13.80;9.15;;;307.80;1382.40;;;;;;4972040;23;20606;-58
2022/01/20 10:24:27;;;;;;;17.35;5.82;;;307.70;1408.00;;;;;;5028574;28;20029;-61
2022/01/20 10:26:53;;;;;;;7.70;3.88;;;307.70;1408.00;;;;;;5028676;28;20029;-66
2022/01/20 10:29:19;;;;;;;10.93;6.55;;;307.60;1382.40;;;;;;5028559;28;20482;-63
2022/01/20 10:31:51;;;;;;;8.52;5.63;;;307.80;1382.40;;;;;;5028659;28;20029;-61
2022/01/20 10:34:35;;;;;;;6.53;4.63;;;308.00;1356.80;;;;;;5028365;28;20033;-64
2022/01/20 10:37:14;;;;;;;3.40;2.20;;;308.00;1382.40;;;;;;5028692;28;20033;-63
2022/01/20 10:39:44;;;;;;;8.70;3.30;;;332.80;1382.40;;;;;;5026836;28;20129;-61
2022/01/20 10:42:20;;;;;;;3.65;1.90;;;332.90;1356.80;;;;;;5028627;28;20387;-60
2022/01/20 10:44:52;;;;;;;3.90;2.60;;;332.90;1356.80;;;;;;5028432;28;20056;-58
2022/01/20 10:47:32;;;;;;;3.78;2.10;;;333.00;1382.40;;;;;;5028079;28;20039;-58
2022/01/20 10:50:11;;;;;;;7.10;4.60;;;333.00;1331.20;;;;;;5028097;28;20052;-65
2022/01/20 10:52:39;;;;;;;3.13;1.83;;;333.10;1331.20;;;;;;5028101;28;20439;-64
2022/01/20 10:55:17;;;;;;;3.42;2.35;;;333.20;1331.20;;;;;;5028519;28;20061;-65
2022/01/20 10:57:42;;;;;;;10.07;8.95;;;333.30;1331.20;;;;;;5028672;28;20094;-63
2022/01/20 11:00:11;;;;;;;8.02;5.07;;;333.20;1331.20;;;;;;5028043;28;20402;-62
2022/01/20 11:02:37;;;;;;;4.32;3.05;;;333.30;1331.20;;;;;;5028137;28;20451;-63
2022/01/20 11:05:03;;;;;;;4.13;2.47;;;333.30;1356.80;;;;;;5028223;28;20018;-58
2022/01/20 11:07:29;;;;;;;23.27;17.75;;;333.30;1331.20;;;;;;5028085;28;20124;-58
2022/01/20 11:10:03;;;;;;;29.45;20.92;;;333.30;1331.20;;;;;;5028496;28;20160;-58
2022/01/20 11:12:29;;;;;;;11.30;7.20;;;333.30;1356.80;;;;;;5027811;28;20029;-61
2022/01/20 11:14:57;;;;;;;10.98;6.68;;;333.20;1331.20;;;;;;5028244;28;20025;-60
2022/01/20 11:17:25;;;;;;;4.25;2.88;;;333.00;1356.80;;;;;;5028106;28;20025;-57
2022/01/20 11:19:52;;;;;;;9.95;7.95;;;332.90;1356.80;;;;;;5028808;28;20045;-60
2022/01/20 11:22:19;;;;;;;6.80;4.05;;;333.00;1356.80;;;;;;5048024;28;20025;-58
2022/01/20 11:25:00;;;;;;;11.80;6.00;;;333.20;1356.80;;;;;;5047975;28;20032;-58
2022/01/20 11:28:02;;;;;;;32.25;19.42;;;333.20;1356.80;;;;;;5048592;28;20033;-57
2022/01/20 11:30:29;;;;;;;49.20;32.10;;;333.50;1356.80;;;;;;5051564;28;20474;-57
2022/01/20 11:33:18;;;;;;;15.15;10.70;;;332.90;1382.40;;;;;;5051791;28;20108;-57
2022/01/20 11:35:47;;;;;;;13.50;8.77;;;332.80;1382.40;;;;;;5051946;28;20036;-55
2022/01/20 11:38:16;;;;;;;22.52;14.32;;;332.80;1408.00;;;;;;5051484;28;20474;-56
2022/01/20 11:41:00;;;;;;;31.90;22.73;;;333.00;1382.40;;;;;;5051718;28;20025;-56
2022/01/20 11:43:49;;;;;;;17.90;12.40;;;333.20;1382.40;;;;;;5051778;28;20025;-57
2022/01/20 11:46:16;;;;;;;28.58;19.98;;;333.20;1382.40;;;;;;5051470;28;20035;-57
2022/01/20 11:48:56;;;;;;;11.68;9.07;;;333.20;1356.80;;;;;;5051507;28;20021;-55
2022/01/20 11:51:43;;;;;;;24.67;14.45;;;333.00;1382.40;;;;;;5050408;28;20056;-56
2022/01/20 11:54:11;;;;;;;13.57;11.07;;;333.00;1408.00;;;;;;5040378;28;20445;-57
2022/01/20 11:56:40;;;;;;;11.73;7.35;;;333.00;1408.00;;;;;;5051040;28;20055;-57
2022/01/20 11:59:09;;;;;;;7.75;4.85;;;333.10;1382.40;;;;;;5050968;28;20079;-57
2022/01/20 12:01:54;;;;;;;9.88;5.50;;;333.10;1408.00;;;;;;5051166;28;20052;-58
2022/01/20 12:04:39;;;;;;;11.55;7.63;;;333.20;1408.00;;;;;;5050792;28;20033;-57
2022/01/20 12:07:06;;;;;;;15.55;10.25;;;333.30;1382.40;;;;;;5051301;28;20429;-57
2022/01/20 12:09:38;;;;;;;14.73;11.95;;;333.20;1382.40;;;;;;5051249;28;20031;-58
2022/01/20 12:12:23;;;;;;;14.60;10.02;;;333.30;1382.40;;;;;;5033638;28;20377;-58
2022/01/20 12:14:49;;;;;;;16.08;10.52;;;333.50;1382.40;;;;;;5052968;28;20104;-59
2022/01/20 12:17:15;;;;;;;11.88;8.07;;;333.70;1382.40;;;;;;5052887;28;20049;-59
2022/01/20 12:19:45;;;;;;;8.93;5.47;;;333.70;1382.40;;;;;;5034685;28;20033;-55
2022/01/20 12:22:10;;;;;;;24.90;15.73;;;358.40;1356.80;;;;;;5052283;28;20486;-56
2022/01/20 12:24:36;;;;;;;22.65;13.80;;;358.40;1356.80;;;;;;5050838;28;20024;-55
2022/01/20 12:27:15;;;;;;;23.48;15.38;;;333.70;1356.80;;;;;;5051029;28;20033;-58
2022/01/20 12:29:40;;;;;;;35.13;19.83;;;333.70;1356.80;;;;;;5048848;28;20071;-58
2022/01/20 12:32:18;;;;;;;22.52;15.18;;;333.70;1356.80;;;;;;5050993;28;20032;-57
2022/01/20 12:34:57;;;;;;;33.15;21.73;;;358.40;1356.80;;;;;;5050841;28;20025;-59
2022/01/20 12:37:40;;;;;;;42.50;27.63;;;358.40;1356.80;;;;;;5049958;28;20374;-63
2022/01/20 12:40:16;;;;;;;31.40;21.92;;;358.50;1356.80;;;;;;5049811;28;20070;-58
2022/01/20 12:42:42;;;;;;;11.75;6.22;;;358.50;1356.80;;;;;;5049611;28;20025;-58
2022/01/20 12:47:52;;;;;;;17.52;15.68;;;358.50;1382.40;;;;;;5048214;28;20035;-57
2022/01/20 12:50:18;;;;;;;22.45;20.15;;;358.50;1382.40;;;;;;5050267;28;20515;-58
2022/01/20 12:52:50;;;;;;;13.35;11.80;;;358.50;1382.40;;;;;;5050903;28;20028;-59
2022/01/20 12:55:17;;;;;;;32.30;23.00;;;358.40;1382.40;;;;;;5049857;28;20075;-56
2022/01/20 12:57:44;;;;;;;8.13;4.07;;;333.70;1382.40;;;;;;5050377;28;20513;-55
2022/01/20 13:00:11;;;;;;;20.98;15.23;;;333.70;1382.40;;;;;;5050258;28;20025;-62
2022/01/20 13:02:36;;;;;;;19.42;11.82;;;333.70;1382.40;;;;;;5050068;28;20108;-58
2022/01/20 13:05:05;;;;;;;26.42;21.83;;;333.60;1382.40;;;;;;5050546;28;20108;-55
2022/01/20 13:07:35;;;;;;;216.10;117.38;;;333.40;1408.00;;;;;;5050183;28;20123;-56
2022/01/20 13:10:19;;;;;;;155.73;88.38;;;333.40;1408.00;;;;;;5050041;28;20060;-55
2022/01/20 13:12:46;;;;;;;43.03;25.77;;;333.30;1433.60;;;;;;5049364;28;20017;-57
2022/01/20 13:15:23;;;;;;;17.02;10.43;;;333.20;1433.60;;;;;;5047628;28;20013;-54
2022/01/20 13:18:04;;;;;;;37.40;24.33;;;333.20;1433.60;;;;;;5049940;28;20017;-55
2022/01/20 13:20:31;;;;;;;94.55;64.50;;;333.20;1433.60;;;;;;5049600;28;20091;-58
2022/01/20 13:23:10;;;;;;;26.40;17.30;;;333.10;1433.60;;;;;;5049992;28;20025;-57
2022/01/20 13:25:40;;;;;;;16.50;14.00;;;333.10;1433.60;;;;;;5047763;28;20078;-59
2022/01/20 13:28:11;;;;;;;123.22;95.80;;;333.00;1433.60;;;;;;5049921;28;20758;-56
2022/01/20 13:30:48;;;;;;;48.30;32.00;;;333.00;1459.20;;;;;;5048715;28;20494;-56
2022/01/20 13:33:23;;;;;;;24.58;17.83;;;332.90;1459.20;;;;;;5051511;28;20485;-56
2022/01/20 13:35:58;;;;;;;10.77;7.40;;;332.80;1459.20;;;;;;5050850;28;20057;-56
2022/01/20 13:38:30;;;;;;;12.05;7.43;;;332.80;1484.80;;;;;;5050199;28;20032;-55
2022/01/20 13:41:14;;;;;;;13.63;9.45;;;332.80;1484.80;;;;;;5049535;28;20028;-56